Sarasota Bradenton International Airport Sarasota,Bradenton US
ICAO: KSRQ
IATA: SRQ
Category: Large
Scheduled Services: Yes

Elevation: 30 ft
TransAlt. 18000 ft.

Airport Communications:
TAMPA APP/DEP:119.65
ASOS:134.15
ATIS:134.15
CLNC DEL:118.25
CTAF:120.1
GND:121.9
ST PETERSBURG RDO:115.2
TWR:120.1
UNICOM:122.95

KSRQ Zoom In..

Runways:

(A) RW 04 length 5009 ft width 150 ft
---- / hdg 43

(B) RW 14 length 9500 ft width 150 ft
ILS 111.30 / hdg 139

(C) RW 22 length 5009 ft width 150 ft
---- / hdg 223

(D) RW 32 length 9500 ft width 150 ft
ILS 109.70 / hdg 319

Location; KSRQ
Day. 04 / Time. 03.53 Zulu
* Altimeter: 30.17
* Temperature: 17° c. 62.6°f.
* Wind from: 110° Speed 05 kn.
Dewpoint: 13° c.
Visibility: 10 Statute Miles.
Clouds: Clear (automated report).

KSRQ 040353Z AUTO 11005KT 10SM CLR 17/13 A3017 RMK AO2 SLP216 T01670128

Going to: --> -->


Wind From 110°
Speed 05 kn.

 
 
jpsmedia worldairports.se 2020   terms of use